PAL104 RPMD-RPLL
Flight info
| Callsign | PAL104 |
|---|---|
| Flight time | N/A |
| Altitude | 40000 |
| Route | ANKIN3R ANKIN B473 LAIYA LAIYA3R |
| Aircraft | A359/H-SDE2E3GHIJ3J4J5LM1ORWXY/LB1D1 |
Departure
| Time | 2026-05-04 13:56 |
|---|---|
| Airport | Francisco Bangoy International Airport (RPMD) |
Arrival
| Time | N/A |
|---|---|
| Airport | Ninoy Aquino International Airport (RPLL) |
| Time | Latitude | Longitude | Altitude | Speed | Heading |
|---|---|---|---|---|---|
| 2026-05-04 13:12 | 7.12946 | 125.64562 | 109 ft | 0 kts | 319° |
| 2026-05-04 13:44 | 7.12943 | 125.64565 | 109 ft | 2 kts | 319° |
| 2026-05-04 13:44 | 7.12932 | 125.64574 | 109 ft | 1 kts | 319° |
| 2026-05-04 13:45 | 7.12925 | 125.64580 | 109 ft | 2 kts | 315° |
| 2026-05-04 13:45 | 7.12915 | 125.64592 | 109 ft | 2 kts | 297° |
| 2026-05-04 13:45 | 7.12910 | 125.64606 | 109 ft | 2 kts | 284° |
| 2026-05-04 13:45 | 7.12908 | 125.64620 | 109 ft | 2 kts | 270° |
| 2026-05-04 13:46 | 7.12909 | 125.64635 | 109 ft | 2 kts | 257° |
| 2026-05-04 13:46 | 7.12913 | 125.64648 | 109 ft | 2 kts | 244° |
| 2026-05-04 13:46 | 7.12920 | 125.64661 | 109 ft | 1 kts | 231° |
| 2026-05-04 13:46 | 7.12924 | 125.64665 | 109 ft | 0 kts | 228° |
| 2026-05-04 13:51 | 7.12920 | 125.64661 | 109 ft | 1 kts | 228° |
| 2026-05-04 13:51 | 7.12903 | 125.64642 | 109 ft | 6 kts | 227° |
| 2026-05-04 13:52 | 7.12802 | 125.64525 | 109 ft | 13 kts | 230° |
| 2026-05-04 13:52 | 7.12728 | 125.64460 | 109 ft | 14 kts | 191° |
| 2026-05-04 13:52 | 7.12661 | 125.64487 | 109 ft | 2 kts | 141° |
| 2026-05-04 13:53 | 7.12643 | 125.64502 | 109 ft | 4 kts | 141° |
| 2026-05-04 13:53 | 7.12598 | 125.64540 | 109 ft | 13 kts | 140° |
| 2026-05-04 13:53 | 7.12514 | 125.64534 | 109 ft | 16 kts | 223° |
| 2026-05-04 13:54 | 7.12277 | 125.64259 | 109 ft | 35 kts | 229° |
| 2026-05-04 13:54 | 7.12097 | 125.64050 | 109 ft | 43 kts | 229° |
| 2026-05-04 13:54 | 7.11767 | 125.63656 | 109 ft | 18 kts | 246° |
| 2026-05-04 13:55 | 7.11733 | 125.63547 | 109 ft | 11 kts | 192° |
| 2026-05-04 13:55 | 7.11729 | 125.63620 | 109 ft | 0 kts | 49° |
| 2026-05-04 13:55 | 7.11772 | 125.63670 | 109 ft | 35 kts | 49° |
| 2026-05-04 13:56 | 7.12111 | 125.64065 | 109 ft | 111 kts | 49° |
| 2026-05-04 13:56 | 7.12758 | 125.64816 | 125 ft | 169 kts | 49° |
| 2026-05-04 13:56 | 7.14308 | 125.66505 | 1498 ft | 164 kts | 29° |
| 2026-05-04 13:57 | 7.15418 | 125.66674 | 2099 ft | 169 kts | 355° |
| 2026-05-04 13:57 | 7.16616 | 125.66475 | 2640 ft | 184 kts | 349° |
| 2026-05-04 13:58 | 7.20845 | 125.65730 | 4108 ft | 231 kts | 352° |
| 2026-05-04 13:58 | 7.24264 | 125.65253 | 5151 ft | 263 kts | 353° |
| 2026-05-04 13:58 | 7.26082 | 125.65012 | 5895 ft | 270 kts | 352° |
| 2026-05-04 13:59 | 7.27937 | 125.64769 | 6764 ft | 273 kts | 352° |
| 2026-05-04 13:59 | 7.29801 | 125.64526 | 7635 ft | 275 kts | 352° |
| 2026-05-04 13:59 | 7.32988 | 125.64114 | 9086 ft | 281 kts | 351° |
| 2026-05-04 14:00 | 7.35575 | 125.63776 | 10225 ft | 286 kts | 351° |
| 2026-05-04 14:00 | 7.38946 | 125.63337 | 11462 ft | 301 kts | 350° |
| 2026-05-04 14:00 | 7.41724 | 125.62976 | 12563 ft | 308 kts | 350° |
| 2026-05-04 14:01 | 7.43859 | 125.62697 | 13383 ft | 313 kts | 349° |
| 2026-05-04 14:01 | 7.45935 | 125.62119 | 14158 ft | 314 kts | 331° |
| 2026-05-04 14:01 | 7.49073 | 125.59158 | 15694 ft | 317 kts | 306° |
| 2026-05-04 14:02 | 7.50417 | 125.57393 | 16414 ft | 323 kts | 305° |
| 2026-05-04 14:02 | 7.51779 | 125.55595 | 17132 ft | 328 kts | 306° |
| 2026-05-04 14:02 | 7.53178 | 125.53764 | 17850 ft | 332 kts | 306° |
| 2026-05-04 14:02 | 7.54600 | 125.51916 | 18551 ft | 337 kts | 306° |
| 2026-05-04 14:03 | 7.56038 | 125.50056 | 19233 ft | 341 kts | 306° |
| 2026-05-04 14:03 | 7.57510 | 125.48156 | 19908 ft | 346 kts | 306° |
| 2026-05-04 14:03 | 7.59002 | 125.46233 | 20572 ft | 350 kts | 306° |
| 2026-05-04 14:03 | 7.60520 | 125.44277 | 21228 ft | 355 kts | 306° |
| 2026-05-04 14:04 | 7.63576 | 125.40342 | 22492 ft | 363 kts | 306° |
| 2026-05-04 14:04 | 7.65145 | 125.38322 | 23112 ft | 367 kts | 307° |
| 2026-05-04 14:04 | 7.66724 | 125.36290 | 23715 ft | 371 kts | 307° |
| 2026-05-04 14:05 | 7.69922 | 125.32158 | 24870 ft | 379 kts | 307° |
| 2026-05-04 14:05 | 7.71531 | 125.30072 | 25419 ft | 382 kts | 307° |
| 2026-05-04 14:05 | 7.73178 | 125.27939 | 25960 ft | 386 kts | 307° |
| 2026-05-04 14:06 | 7.74732 | 125.25931 | 26451 ft | 389 kts | 307° |
| 2026-05-04 14:06 | 7.76488 | 125.23663 | 26988 ft | 393 kts | 307° |
| 2026-05-04 14:06 | 7.78172 | 125.21489 | 27481 ft | 396 kts | 307° |
| 2026-05-04 14:06 | 7.79855 | 125.19317 | 27954 ft | 399 kts | 307° |
| 2026-05-04 14:07 | 7.81567 | 125.17107 | 28419 ft | 402 kts | 307° |
| 2026-05-04 14:07 | 7.83283 | 125.14893 | 28870 ft | 405 kts | 307° |
| 2026-05-04 14:07 | 7.85032 | 125.12634 | 29313 ft | 408 kts | 307° |
| 2026-05-04 14:07 | 7.86764 | 125.10398 | 29736 ft | 410 kts | 307° |
| 2026-05-04 14:08 | 7.88534 | 125.08111 | 30155 ft | 413 kts | 307° |
| 2026-05-04 14:08 | 7.90250 | 125.05894 | 30547 ft | 415 kts | 308° |
| 2026-05-04 14:08 | 7.91989 | 125.03648 | 30930 ft | 418 kts | 308° |
| 2026-05-04 14:08 | 7.93769 | 125.01356 | 31307 ft | 420 kts | 309° |
| 2026-05-04 14:09 | 7.97700 | 124.96950 | 32049 ft | 425 kts | 315° |
| 2026-05-04 14:09 | 7.99841 | 124.94947 | 32401 ft | 427 kts | 319° |
| 2026-05-04 14:10 | 8.04467 | 124.91135 | 33093 ft | 431 kts | 321° |
| 2026-05-04 14:10 | 8.06774 | 124.89271 | 33421 ft | 433 kts | 321° |
| 2026-05-04 14:10 | 8.09093 | 124.87393 | 33744 ft | 435 kts | 321° |
| 2026-05-04 14:10 | 8.11483 | 124.85456 | 34064 ft | 437 kts | 321° |
| 2026-05-04 14:11 | 8.13846 | 124.83546 | 34369 ft | 439 kts | 321° |
| 2026-05-04 14:11 | 8.18606 | 124.79685 | 34956 ft | 442 kts | 321° |
| 2026-05-04 14:11 | 8.20981 | 124.77753 | 35234 ft | 444 kts | 321° |
| 2026-05-04 14:12 | 8.23388 | 124.75790 | 35506 ft | 446 kts | 321° |
| 2026-05-04 14:12 | 8.25790 | 124.73831 | 35770 ft | 448 kts | 321° |
| 2026-05-04 14:12 | 8.30632 | 124.69877 | 36270 ft | 451 kts | 321° |
| 2026-05-04 14:13 | 8.33019 | 124.67926 | 36496 ft | 453 kts | 321° |
| 2026-05-04 14:13 | 8.35503 | 124.65897 | 36720 ft | 455 kts | 321° |
| 2026-05-04 14:13 | 8.37937 | 124.63910 | 36928 ft | 457 kts | 322° |
| 2026-05-04 14:13 | 8.40460 | 124.61966 | 37126 ft | 459 kts | 324° |
| 2026-05-04 14:14 | 8.43117 | 124.60139 | 37320 ft | 461 kts | 328° |
| 2026-05-04 14:14 | 8.48630 | 124.56866 | 37806 ft | 461 kts | 330° |
| 2026-05-04 14:14 | 8.51387 | 124.55286 | 38072 ft | 461 kts | 330° |
| 2026-05-04 14:15 | 8.56972 | 124.52078 | 38489 ft | 462 kts | 330° |
| 2026-05-04 14:15 | 8.62584 | 124.48844 | 38847 ft | 465 kts | 330° |
| 2026-05-04 14:16 | 8.68197 | 124.45603 | 39186 ft | 467 kts | 330° |
| 2026-05-04 14:16 | 8.70984 | 124.43993 | 39343 ft | 468 kts | 330° |
| 2026-05-04 14:17 | 8.76646 | 124.40720 | 39651 ft | 470 kts | 330° |
| 2026-05-04 14:17 | 8.79491 | 124.39075 | 39803 ft | 471 kts | 330° |
| 2026-05-04 14:18 | 8.88012 | 124.34143 | 39876 ft | 473 kts | 330° |
| 2026-05-04 14:19 | 8.99365 | 124.27534 | 39879 ft | 472 kts | 330° |
| 2026-05-04 14:19 | 9.05067 | 124.24235 | 39879 ft | 472 kts | 330° |
| 2026-05-04 14:20 | 9.10722 | 124.20956 | 39879 ft | 471 kts | 330° |
| 2026-05-04 14:20 | 9.16396 | 124.17680 | 39879 ft | 469 kts | 330° |
| 2026-05-04 14:21 | 9.24730 | 124.12849 | 39879 ft | 470 kts | 330° |
| 2026-05-04 14:21 | 9.30402 | 124.09552 | 39887 ft | 469 kts | 330° |
| 2026-05-04 14:22 | 9.36009 | 124.06291 | 39893 ft | 470 kts | 330° |
| 2026-05-04 14:22 | 9.41684 | 124.03008 | 39895 ft | 469 kts | 330° |
| 2026-05-04 14:23 | 9.50159 | 123.98123 | 39898 ft | 470 kts | 330° |
| 2026-05-04 14:24 | 9.55835 | 123.94834 | 39897 ft | 470 kts | 330° |
| 2026-05-04 14:24 | 9.61461 | 123.91568 | 39899 ft | 469 kts | 330° |
| 2026-05-04 14:25 | 9.67147 | 123.88264 | 39898 ft | 470 kts | 330° |
| 2026-05-04 14:25 | 9.75602 | 123.83347 | 39897 ft | 469 kts | 330° |
| 2026-05-04 14:26 | 9.81266 | 123.80050 | 39897 ft | 469 kts | 330° |
| 2026-05-04 14:26 | 9.86908 | 123.76765 | 39897 ft | 470 kts | 330° |
| 2026-05-04 14:27 | 9.92576 | 123.73467 | 39898 ft | 470 kts | 330° |
| 2026-05-04 14:27 | 9.98206 | 123.70190 | 39898 ft | 470 kts | 330° |
| 2026-05-04 14:28 | 10.02927 | 123.67437 | 39898 ft | 469 kts | 330° |
| 2026-05-04 14:28 | 10.09524 | 123.63586 | 39897 ft | 469 kts | 330° |
| 2026-05-04 14:29 | 10.20805 | 123.57014 | 39898 ft | 469 kts | 330° |
| 2026-05-04 14:30 | 10.26433 | 123.53719 | 39898 ft | 470 kts | 330° |
| 2026-05-04 14:31 | 10.29290 | 123.52049 | 39898 ft | 470 kts | 330° |